createdAt,value
2023-05-15T19:30:12.953Z,12.13
2023-05-15T19:32:49.118Z,12.08
2023-05-15T19:35:20.749Z,12.09
2023-05-15T19:37:52.844Z,12.07
2023-05-15T19:40:24.864Z,12.07
2023-05-15T19:42:56.864Z,12.09
2023-05-15T19:45:30.596Z,12.09
2023-05-15T19:48:03.692Z,12.09
2023-05-15T20:01:18.506Z,12.40
2023-05-15T20:03:50.163Z,12.47
2023-05-15T20:06:22.138Z,12.44
2023-05-15T20:08:53.801Z,12.34
2023-05-15T20:11:26.026Z,12.37
2023-05-15T20:13:57.653Z,12.35
2023-05-15T20:16:29.275Z,12.34
2023-05-15T20:19:01.045Z,12.37
2023-05-15T20:21:32.856Z,12.41
2023-05-15T20:24:04.765Z,12.43
2023-05-15T20:26:36.681Z,12.41
2023-05-15T20:29:08.306Z,12.40
2023-05-15T20:31:40.665Z,12.40
2023-05-15T20:34:15.304Z,12.38
2023-05-15T20:36:47.764Z,12.39
2023-05-15T20:39:20.163Z,12.40
2023-05-15T20:41:52.143Z,12.40
2023-05-15T20:44:23.901Z,12.47
2023-05-15T20:46:55.854Z,12.48
2023-05-15T20:49:27.442Z,12.49
2023-05-15T20:52:00.536Z,12.46
2023-05-15T20:54:32.265Z,12.49
2023-05-15T20:57:05.141Z,12.54
2023-05-15T20:59:36.716Z,12.52
2023-05-15T21:02:08.424Z,12.53
2023-05-15T21:04:40.004Z,12.53
2023-05-15T21:07:11.885Z,12.51
2023-05-15T21:09:43.413Z,12.50
2023-05-15T21:12:15.278Z,12.51
2023-05-15T21:14:46.930Z,12.55
2023-05-15T21:17:21.387Z,12.58
2023-05-15T21:19:53.776Z,12.53
2023-05-15T21:22:25.371Z,12.41
2023-05-15T21:24:56.959Z,12.37
2023-05-15T21:27:28.709Z,12.36
2023-05-15T21:30:00.441Z,12.37
2023-05-15T21:32:32.093Z,12.41
2023-05-15T21:35:03.876Z,12.44
2023-05-15T21:37:35.930Z,12.44
2023-05-15T21:40:08.444Z,12.37
2023-05-15T21:42:40.953Z,12.32
2023-05-15T21:45:15.051Z,12.32
2023-05-15T21:47:49.265Z,12.42
2023-05-15T21:50:20.914Z,12.47
2023-05-15T21:52:55.346Z,12.44
2023-05-15T21:55:26.975Z,12.45
2023-05-15T21:58:01.054Z,12.52
2023-05-15T22:00:32.800Z,12.58
2023-05-15T22:03:04.478Z,12.62
2023-05-15T22:05:36.321Z,12.63
2023-05-15T22:08:10.339Z,12.60
2023-05-15T22:10:41.981Z,12.60
2023-05-15T22:13:13.665Z,12.60
2023-05-15T22:15:45.347Z,12.63
2023-05-15T22:18:16.901Z,12.64
2023-05-15T22:20:48.938Z,12.57
2023-05-15T22:23:20.646Z,12.60
2023-05-15T22:25:52.334Z,12.57
2023-05-15T22:28:23.981Z,12.51
2023-05-15T22:30:58.356Z,12.49
2023-05-15T22:33:30.206Z,12.53
2023-05-15T22:36:06.193Z,12.56
2023-05-15T22:38:37.972Z,12.63
2023-05-15T22:41:09.633Z,12.64
2023-05-15T22:43:41.755Z,12.60
2023-05-15T22:46:13.488Z,12.54
2023-05-15T22:48:45.102Z,12.53
2023-05-15T22:51:17.632Z,12.49
2023-05-15T22:53:49.213Z,12.45
2023-05-15T22:56:21.452Z,12.41
2023-05-15T22:58:53.399Z,12.41
2023-05-15T23:01:25.089Z,12.33
2023-05-15T23:03:56.872Z,12.26
2023-05-15T23:06:28.553Z,12.21
2023-05-15T23:09:03.941Z,12.22
2023-05-15T23:11:35.945Z,12.23
2023-05-15T23:14:08.505Z,12.21
2023-05-15T23:16:40.241Z,12.18
2023-05-15T23:19:12.012Z,12.19
2023-05-15T23:21:49.125Z,12.18
2023-05-15T23:24:20.878Z,12.17
2023-05-15T23:26:52.639Z,12.14
2023-05-15T23:29:24.289Z,12.14
2023-05-15T23:31:58.813Z,12.14
2023-05-15T23:34:30.778Z,12.11
2023-05-15T23:37:02.470Z,12.09
2023-05-15T23:39:34.196Z,12.09
2023-05-15T23:42:06.208Z,12.13
2023-05-15T23:44:40.401Z,12.11
2023-05-15T23:47:12.101Z,12.08
2023-05-15T23:49:44.155Z,12.06
2023-05-15T23:52:15.953Z,12.03
2023-05-15T23:54:47.641Z,11.98
2023-05-15T23:57:19.581Z,11.91
2023-05-15T23:59:54.096Z,11.88
